Time;durP1;ratioP1;P1;durP2;ratioP2;P2;SDS_P1;SDS_P2;PMS_P1;PMS_P2;Temp;Humidity;BMP_temperature;BMP_pressure;BME280_temperature;BME280_humidity;BME280_pressure;Samples;Min_cycle;Max_cycle;Signal;HPM_P1;HPM_P2
2023/08/10 07:23:17;;;;;;;4.70;2.50;;;;;;;-145.79;69.70;77735.50;5292385;27;20398;-68
2023/08/10 07:25:53;;;;;;;4.82;3.40;;;;;;;-145.79;70.09;77720.66;5289643;28;20391;-67
2023/08/10 07:28:26;;;;;;;4.85;3.33;;;;;;;-145.79;69.91;77716.44;5279318;28;20051;-67
2023/08/10 07:30:59;;;;;;;4.68;3.40;;;;;;;-145.79;70.34;77699.47;5287727;28;20028;-66
2023/08/10 07:33:31;;;;;;;6.70;2.97;;;;;;;-145.79;67.73;77697.34;5286237;28;20021;-67
2023/08/10 07:36:03;;;;;;;3.65;2.20;;;;;;;-145.79;63.60;77693.13;5288763;28;20467;-67
2023/08/10 07:38:34;;;;;;;3.65;2.33;;;;;;;-145.79;62.75;77684.63;5286192;28;20033;-67
2023/08/10 07:41:05;;;;;;;3.90;2.50;;;;;;;-145.79;61.29;77669.78;5288163;28;20353;-69
2023/08/10 07:43:37;;;;;;;4.93;2.80;;;;;;;-145.79;59.85;77657.06;5286489;28;20027;-67
2023/08/10 07:46:08;;;;;;;3.83;2.45;;;;;;;-145.79;59.71;77654.97;5292138;28;20472;-68
2023/08/10 07:48:39;;;;;;;3.40;2.65;;;;;;;-145.79;58.73;77652.84;5286848;28;20079;-68
2023/08/10 07:51:11;;;;;;;3.70;1.65;;;;;;;-145.79;57.54;77642.25;5284924;28;20439;-68
2023/08/10 07:53:42;;;;;;;5.97;2.40;;;;;;;-145.79;58.73;77631.63;5288712;28;20098;-68
2023/08/10 07:56:14;;;;;;;4.50;2.33;;;;;;;-145.79;57.25;77631.63;5288867;28;20309;-68
2023/08/10 07:58:45;;;;;;;3.47;2.33;;;;;;;-145.79;58.67;77623.16;5286212;28;20119;-68
2023/08/10 08:01:16;;;;;;;2.80;1.92;;;;;;;-145.79;56.89;77618.91;5281643;28;20074;-68
2023/08/10 08:03:47;;;;;;;2.95;1.50;;;;;;;-145.79;54.32;77608.31;5287844;28;20036;-68
2023/08/10 08:06:19;;;;;;;6.57;1.98;;;;;;;-145.79;53.16;77608.31;5287607;28;20428;-67
2023/08/10 08:08:50;;;;;;;3.75;1.75;;;;;;;-145.79;52.70;77595.59;5289542;28;20036;-68
2023/08/10 08:11:21;;;;;;;2.25;1.40;;;;;;;-145.79;51.84;77589.25;5291003;28;20391;-68
2023/08/10 08:13:53;;;;;;;3.50;1.52;;;;;;;-145.79;52.85;77589.25;5281261;28;20024;-68
2023/08/10 08:16:25;;;;;;;3.22;1.40;;;;;;;-145.79;53.36;77570.16;5286812;28;20025;-68
2023/08/10 08:18:56;;;;;;;2.90;1.80;;;;;;;-145.79;54.08;77568.03;5279419;28;20028;-68
2023/08/10 08:21:29;;;;;;;3.97;1.98;;;;;;;-145.79;56.59;77559.56;5286901;28;20376;-68
2023/08/10 08:24:01;;;;;;;5.28;3.03;;;;;;;-145.79;53.77;77557.44;5287911;28;20468;-68
2023/08/10 08:26:33;;;;;;;4.82;1.52;;;;;;;-145.79;52.74;77546.84;5285397;28;20024;-68
2023/08/10 08:29:05;;;;;;;3.90;2.40;;;;;;;-145.79;51.62;77540.50;5291760;28;20033;-70
2023/08/10 08:31:36;;;;;;;2.00;1.80;;;;;;;-145.79;51.68;77546.84;5284446;28;20036;-68
2023/08/10 08:34:07;;;;;;;3.47;1.75;;;;;;;-145.79;52.10;77538.38;5274288;28;20391;-69
2023/08/10 08:36:39;;;;;;;3.47;1.70;;;;;;;-145.79;51.18;77538.38;5265030;28;20498;-71
2023/08/10 08:39:10;;;;;;;2.70;1.45;;;;;;;-145.79;51.63;77536.25;5275435;28;20039;-70
2023/08/10 08:41:42;;;;;;;2.53;1.70;;;;;;;-145.79;51.96;77529.88;5258662;28;20116;-69
2023/08/10 08:44:14;;;;;;;2.55;1.90;;;;;;;-145.79;52.54;77525.66;5275899;28;20044;-69
2023/08/10 08:46:48;;;;;;;2.95;1.50;;;;;;;-145.79;53.58;77500.22;5265641;28;20111;-68
2023/08/10 08:49:20;;;;;;;3.58;1.33;;;;;;;-145.79;53.42;77487.50;5273109;28;20029;-69
2023/08/10 08:51:51;;;;;;;3.70;1.60;;;;;;;-145.79;52.48;77466.31;5265551;28;20029;-68
2023/08/10 08:54:24;;;;;;;3.25;1.58;;;;;;;-145.79;51.38;77466.31;5276051;28;20032;-68
2023/08/10 08:56:55;;;;;;;3.35;1.63;;;;;;;-145.79;52.00;77436.63;5272492;28;20040;-68
2023/08/10 08:59:27;;;;;;;4.18;1.30;;;;;;;-145.79;51.36;77428.16;5271749;28;20543;-67
2023/08/10 09:02:01;;;;;;;4.40;1.50;;;;;;;-145.79;51.41;77415.44;5276586;28;20562;-67
2023/08/10 09:04:32;;;;;;;2.22;1.50;;;;;;;-145.79;50.03;77409.06;5273458;28;20067;-67
2023/08/10 09:07:03;;;;;;;2.40;1.50;;;;;;;-145.79;50.16;77413.31;5269424;28;20045;-68
2023/08/10 09:09:36;;;;;;;2.47;1.38;;;;;;;-145.79;50.89;77409.06;5262267;28;20020;-68
2023/08/10 09:12:34;;;;;;;4.13;2.17;;;;;;;-145.79;50.94;77394.22;5261907;28;20029;-70
2023/08/10 09:15:08;;;;;;;6.47;1.77;;;;;;;-145.79;50.50;77400.59;5269496;28;20379;-69
2023/08/10 09:17:48;;;;;;;1.85;1.48;;;;;;;-145.79;50.12;77409.06;5262092;28;20037;-69
2023/08/10 09:20:25;;;;;;;2.28;1.90;;;;;;;-145.79;50.72;77398.47;5261177;28;20404;-69
2023/08/10 09:22:58;;;;;;;2.55;1.40;;;;;;;-145.79;50.89;77396.34;5264071;28;20045;-69
2023/08/10 09:25:37;;;;;;;2.38;1.52;;;;;;;-145.79;50.55;77385.75;5273807;28;20024;-70
2023/08/10 09:28:12;;;;;;;2.92;1.50;;;;;;;-145.79;50.31;77394.22;5273129;28;20032;-69
2023/08/10 09:30:43;;;;;;;4.68;2.10;;;;;;;-145.79;50.14;77383.63;5271996;28;20048;-68
2023/08/10 09:33:30;;;;;;;1.65;1.45;;;;;;;-145.79;51.00;77368.78;5274553;28;20368;-68
2023/08/10 09:36:03;;;;;;;2.30;1.70;;;;;;;-145.79;50.88;77366.69;5273456;28;20020;-69
2023/08/10 09:38:35;;;;;;;3.35;1.73;;;;;;;-145.79;50.56;77362.44;5263404;28;20033;-68
2023/08/10 09:41:11;;;;;;;4.28;1.70;;;;;;;-145.79;50.80;77349.72;5271561;28;20357;-68
2023/08/10 09:43:44;;;;;;;4.20;1.67;;;;;;;-145.79;50.67;77349.72;5260761;28;20083;-68
2023/08/10 09:46:16;;;;;;;2.90;1.73;;;;;;;-145.79;51.37;77345.47;5269022;28;20028;-68
2023/08/10 09:48:49;;;;;;;2.10;1.90;;;;;;;-145.79;51.55;77330.66;5275231;28;20028;-68
2023/08/10 09:51:20;;;;;;;2.47;1.70;;;;;;;-145.79;51.21;77334.88;5269644;28;20033;-69
2023/08/10 09:53:52;;;;;;;2.10;1.58;;;;;;;-145.79;50.92;77322.16;5271013;28;20165;-68
2023/08/10 09:56:24;;;;;;;3.30;1.60;;;;;;;-145.79;50.97;77305.22;5270454;28;20107;-68
2023/08/10 09:58:56;;;;;;;3.88;1.85;;;;;;;-145.79;51.83;77294.59;5277815;28;20531;-69
2023/08/10 10:01:27;;;;;;;5.03;2.00;;;;;;;-145.79;51.19;77305.22;5275723;28;20495;-68
2023/08/10 10:03:59;;;;;;;3.10;2.00;;;;;;;-145.79;50.20;77313.69;5262321;28;20440;-69
2023/08/10 10:06:31;;;;;;;2.88;1.88;;;;;;;-145.79;50.30;77300.97;5267943;28;20108;-68
2023/08/10 10:09:04;;;;;;;3.80;2.40;;;;;;;-145.79;51.05;77292.50;5272519;28;20051;-68
2023/08/10 10:11:36;;;;;;;2.20;1.60;;;;;;;-145.79;51.31;77290.38;5270309;28;20476;-69
2023/08/10 10:14:11;;;;;;;3.60;1.80;;;;;;;-145.79;51.82;77288.25;5274342;28;20116;-69
2023/08/10 10:16:42;;;;;;;3.95;2.00;;;;;;;-145.79;51.55;77284.00;5260879;28;20030;-67
2023/08/10 10:19:13;;;;;;;2.53;1.85;;;;;;;-145.79;52.08;77290.38;5278249;28;20461;-69
2023/08/10 10:21:45;;;;;;;2.72;1.90;;;;;;;-145.79;51.15;77288.25;5268554;28;20045;-69
2023/08/10 10:24:26;;;;;;;2.05;1.80;;;;;;;-145.79;51.55;77279.78;5273950;28;20096;-67
2023/08/10 10:27:09;;;;;;;3.53;1.85;;;;;;;-145.79;50.87;77279.78;5273968;28;20078;-67
2023/08/10 10:29:43;;;;;;;3.50;1.67;;;;;;;-145.79;51.01;77279.78;5270886;28;20545;-67
2023/08/10 10:32:22;;;;;;;3.03;2.50;;;;;;;-145.79;51.56;77269.19;5272280;28;20044;-68
2023/08/10 10:34:54;;;;;;;8.10;7.00;;;;;;;-145.79;51.88;77254.34;5278390;28;20035;-68
2023/08/10 10:37:30;;;;;;;3.25;1.95;;;;;;;-145.79;51.33;77256.47;5271476;28;20029;-68
2023/08/10 10:40:16;;;;;;;7.50;4.32;;;;;;;-145.79;51.99;77247.97;5269766;28;20021;-68
2023/08/10 10:43:02;;;;;;;3.28;2.00;;;;;;;-145.79;51.97;77241.63;5263395;28;20090;-67
2023/08/10 10:45:36;;;;;;;3.55;1.83;;;;;;;-145.79;50.97;77237.38;5272516;28;20115;-67
2023/08/10 10:48:13;;;;;;;3.35;1.80;;;;;;;-145.79;51.08;77226.78;5266827;28;20029;-67
2023/08/10 10:50:44;;;;;;;2.53;1.70;;;;;;;-145.79;50.50;77203.47;5270055;28;20021;-68
2023/08/10 10:53:16;;;;;;;2.50;1.60;;;;;;;-145.79;50.61;77201.34;5271707;28;20055;-68
2023/08/10 10:55:48;;;;;;;3.33;1.80;;;;;;;-145.79;50.39;77195.00;5269779;28;20017;-68
2023/08/10 10:58:20;;;;;;;5.05;2.55;;;;;;;-145.79;50.42;77178.03;5269956;28;20044;-67
2023/08/10 11:00:52;;;;;;;2.67;1.92;;;;;;;-145.79;50.36;77173.78;5273050;28;20031;-68
2023/08/10 11:03:27;;;;;;;2.75;1.98;;;;;;;-145.79;50.89;77165.31;5274398;28;20115;-67
2023/08/10 11:05:58;;;;;;;;;;;;;;;-145.79;50.45;77133.53;5269987;28;20025;-68
2023/08/10 11:08:31;;;;;;;8.52;7.30;;;;;;;-145.79;49.19;77133.53;5264635;28;19946;-68
2023/08/10 11:11:02;;;;;;;2.92;2.60;;;;;;;-145.79;49.94;77114.44;5273964;28;20116;-68
2023/08/10 11:13:34;;;;;;;3.42;2.20;;;;;;;-145.79;50.19;77127.16;5270224;28;20120;-68
2023/08/10 11:16:06;;;;;;;2.90;2.10;;;;;;;-145.79;49.61;77131.41;5270444;28;20104;-68
2023/08/10 11:18:37;;;;;;;2.47;1.83;;;;;;;-145.79;50.00;77118.69;5271458;28;20112;-68
2023/08/10 11:21:09;;;;;;;2.63;2.10;;;;;;;-145.79;49.83;77112.31;5272136;28;20127;-68
2023/08/10 11:23:41;;;;;;;14.13;11.27;;;;;;;-145.79;49.55;77114.44;5273844;28;20029;-69
2023/08/10 11:26:13;;;;;;;5.40;3.17;;;;;;;-145.79;49.88;77101.72;5271289;28;20218;-68
2023/08/10 11:28:45;;;;;;;3.88;2.00;;;;;;;-145.79;50.43;77099.63;5274814;28;20013;-69
2023/08/10 11:31:17;;;;;;;2.95;2.00;;;;;;;-145.79;49.95;77097.50;5272674;28;20024;-69
2023/08/10 11:33:50;;;;;;;4.88;3.30;;;;;;;-145.79;49.90;77095.38;5273613;28;20036;-69
2023/08/10 11:36:23;;;;;;;40.08;36.50;;;;;;;-145.79;50.28;77072.06;5270178;28;20044;-69
2023/08/10 11:38:54;;;;;;;7.63;4.35;;;;;;;-145.79;49.90;77057.22;5269933;28;20094;-68
2023/08/10 11:41:26;;;;;;;3.50;2.20;;;;;;;-145.79;49.14;77065.69;5268835;28;20024;-69
2023/08/10 11:43:57;;;;;;;3.33;2.38;;;;;;;-145.79;49.70;77063.59;5273460;28;20464;-69
2023/08/10 11:46:29;;;;;;;3.60;2.25;;;;;;;-145.79;49.57;77063.59;5263858;28;20021;-69
2023/08/10 11:49:00;;;;;;;3.25;1.73;;;;;;;-145.79;49.21;77055.09;5263235;28;20029;-69
2023/08/10 11:51:33;;;;;;;2.28;1.90;;;;;;;-145.79;49.33;77042.38;5266608;28;20112;-72
2023/08/10 11:54:11;;;;;;;4.65;2.38;;;;;;;-145.79;48.88;77025.44;5265604;28;20029;-71
2023/08/10 11:56:44;;;;;;;4.72;2.80;;;;;;;-145.79;48.35;77021.19;5264537;28;20387;-72
2023/08/10 11:59:16;;;;;;;2.70;2.10;;;;;;;-145.79;48.40;77006.34;5265560;28;20034;-70
2023/08/10 12:01:52;;;;;;;3.22;1.98;;;;;;;-145.79;48.05;76997.88;5268995;28;20036;-71
2023/08/10 12:04:29;;;;;;;2.72;2.25;;;;;;;-145.79;48.16;76980.94;5255637;28;20029;-71
2023/08/10 12:07:01;;;;;;;2.55;1.90;;;;;;;-145.79;47.71;76963.97;5263334;28;20103;-70
2023/08/10 12:09:32;;;;;;;3.92;2.15;;;;;;;-145.79;47.26;76938.53;5268354;28;20520;-71
2023/08/10 12:12:05;;;;;;;3.20;2.30;;;;;;;-145.79;47.44;76927.94;5277617;28;20025;-71
2023/08/10 12:14:36;;;;;;;4.22;2.15;;;;;;;-145.79;47.00;76917.34;5273906;28;20029;-70
2023/08/10 12:17:08;;;;;;;4.22;2.40;;;;;;;-145.79;46.39;76932.19;5265396;28;20485;-69
2023/08/10 12:19:40;;;;;;;6.50;2.30;;;;;;;-145.79;47.55;76913.09;5270748;28;20435;-69
2023/08/10 12:22:11;;;;;;;2.92;2.05;;;;;;;-145.79;46.28;76919.47;5275596;28;20460;-69
2023/08/10 12:24:42;;;;;;;2.88;2.33;;;;;;;-145.79;46.51;76915.22;5273622;28;20035;-68
2023/08/10 12:27:15;;;;;;;5.68;2.10;;;;;;;-145.79;46.46;76917.34;5274237;28;20017;-68
2023/08/10 12:29:46;;;;;;;2.15;1.95;;;;;;;-145.79;46.50;76891.91;5254093;28;20377;-69
2023/08/10 12:32:17;;;;;;;8.10;6.10;;;;;;;-145.79;46.38;76879.19;5268868;28;20032;-69
2023/08/10 12:34:49;;;;;;;10.57;7.65;;;;;;;-145.79;46.66;76896.16;5272017;28;20031;-68
2023/08/10 12:37:20;;;;;;;3.63;2.70;;;;;;;-145.79;46.96;76923.69;5273500;28;20036;-70
2023/08/10 12:39:51;;;;;;;2.05;1.85;;;;;;;-145.79;47.52;76923.69;5270283;28;20166;-70
2023/08/10 12:42:25;;;;;;;3.60;2.10;;;;;;;-145.79;47.60;76949.13;5274370;28;20036;-71
2023/08/10 12:44:57;;;;;;;25.48;22.85;;;;;;;-145.79;46.76;76906.75;5273706;28;20507;-70
2023/08/10 12:47:28;;;;;;;3.30;2.40;;;;;;;-145.79;46.55;76898.25;5270688;28;20033;-69
2023/08/10 12:49:59;;;;;;;3.17;2.00;;;;;;;-145.79;46.64;76885.56;5271694;28;20035;-68
2023/08/10 12:52:31;;;;;;;2.90;2.00;;;;;;;-145.79;48.61;76855.88;5273817;28;20055;-69
2023/08/10 12:55:03;;;;;;;2.33;2.08;;;;;;;-145.79;46.19;76841.03;5272114;28;20124;-69
2023/08/10 12:57:35;;;;;;;2.13;1.90;;;;;;;-145.79;46.13;76830.44;5273816;28;20116;-66
2023/08/10 13:00:10;;;;;;;5.20;2.15;;;;;;;-145.79;45.54;76838.94;5275736;28;20035;-67
2023/08/10 13:02:43;;;;;;;4.47;2.42;;;;;;;-145.79;45.78;76843.16;5274389;28;20029;-68
2023/08/10 13:05:15;;;;;;;2.33;2.00;;;;;;;-145.79;45.83;76879.19;5272195;28;20486;-68
2023/08/10 13:07:46;;;;;;;3.75;2.10;;;;;;;-145.79;46.24;76860.13;5266091;28;20388;-67
2023/08/10 13:10:18;;;;;;;2.40;2.20;;;;;;;-145.79;46.47;76855.88;5274786;28;20040;-67
2023/08/10 13:12:51;;;;;;;5.80;2.63;;;;;;;-145.79;46.04;76872.84;5269184;28;20476;-68
2023/08/10 13:15:23;;;;;;;2.70;2.00;;;;;;;-145.79;47.19;76900.38;5276068;28;20016;-67
2023/08/10 13:17:54;;;;;;;3.45;2.10;;;;;;;-145.79;47.08;76885.56;5274557;28;20448;-67
2023/08/10 13:20:26;;;;;;;3.03;2.20;;;;;;;-145.79;47.32;76887.66;5270884;28;20392;-67
2023/08/10 13:22:57;;;;;;;3.28;2.55;;;;;;;-145.79;46.93;76889.78;5272240;28;20041;-67
2023/08/10 13:25:28;;;;;;;2.58;2.03;;;;;;;-145.79;46.86;76891.91;5273581;28;20037;-66
2023/08/10 13:28:00;;;;;;;3.10;2.10;;;;;;;-145.79;47.05;76919.47;5272208;28;20025;-66
2023/08/10 13:30:31;;;;;;;3.13;2.05;;;;;;;-145.79;47.26;76923.69;5275918;28;20024;-67
2023/08/10 13:33:03;;;;;;;2.55;2.08;;;;;;;-145.79;47.64;76932.19;5272413;28;20040;-67
2023/08/10 13:35:34;;;;;;;3.15;2.08;;;;;;;-145.79;47.78;76923.69;5270408;28;20071;-67
2023/08/10 13:38:05;;;;;;;3.33;2.20;;;;;;;-145.79;47.77;76936.41;5271705;28;20407;-67
2023/08/10 13:40:37;;;;;;;3.08;2.35;;;;;;;-145.79;47.12;76936.41;5272298;28;20561;-68
2023/08/10 13:43:08;;;;;;;3.17;1.88;;;;;;;-145.79;46.96;76934.28;5275309;28;20047;-68
2023/08/10 13:45:39;;;;;;;4.45;2.25;;;;;;;-145.79;47.61;76936.41;5271827;28;20039;-68
2023/08/10 13:48:11;;;;;;;2.35;1.90;;;;;;;-145.79;48.00;76910.97;5270964;28;20060;-69
2023/08/10 13:50:42;;;;;;;20.35;18.35;;;;;;;-145.79;47.83;76902.50;5275006;28;20031;-69
2023/08/10 13:53:13;;;;;;;7.82;7.00;;;;;;;-145.79;47.07;76894.03;5275876;28;20067;-67
2023/08/10 13:55:45;;;;;;;3.67;2.25;;;;;;;-145.79;48.09;76883.44;5271016;28;20032;-67
2023/08/10 13:58:16;;;;;;;3.45;3.15;;;;;;;-145.79;46.50;76885.56;5266703;28;20111;-67
2023/08/10 14:00:47;;;;;;;2.78;1.98;;;;;;;-145.79;46.72;76841.03;5272409;28;20563;-67
2023/08/10 14:03:19;;;;;;;3.78;1.98;;;;;;;-145.79;46.64;76853.75;5270508;28;20111;-67
2023/08/10 14:05:51;;;;;;;2.20;1.95;;;;;;;-145.79;46.69;76858.00;5273527;28;20025;-67
2023/08/10 14:08:22;;;;;;;3.40;2.15;;;;;;;-145.79;46.81;76868.59;5275063;28;20060;-67
2023/08/10 14:10:54;;;;;;;2.63;2.05;;;;;;;-145.79;46.76;76879.19;5269635;28;20071;-67
2023/08/10 14:13:25;;;;;;;2.97;1.92;;;;;;;-145.79;46.71;76881.31;5265385;28;20384;-67
2023/08/10 14:15:57;;;;;;;3.50;1.80;;;;;;;-145.79;47.11;76881.31;5260927;28;20029;-67
2023/08/10 14:18:29;;;;;;;2.28;2.08;;;;;;;-145.79;47.45;76885.56;5264798;28;20044;-67
2023/08/10 14:21:00;;;;;;;2.83;2.40;;;;;;;-145.79;47.11;76891.91;5272541;28;20440;-67
2023/08/10 14:23:32;;;;;;;3.28;1.98;;;;;;;-145.79;47.15;76889.78;5271100;28;20550;-67
2023/08/10 14:26:03;;;;;;;1.92;1.70;;;;;;;-145.79;47.49;76894.03;5265765;28;20024;-67
2023/08/10 14:28:36;;;;;;;2.35;2.00;;;;;;;-145.79;47.90;76887.66;5270815;28;20452;-67
2023/08/10 14:31:07;;;;;;;3.63;2.03;;;;;;;-145.79;47.69;76838.94;5269267;28;20499;-67
2023/08/10 14:33:38;;;;;;;3.05;1.90;;;;;;;-145.79;46.77;76832.56;5274528;28;20048;-67
2023/08/10 14:36:10;;;;;;;4.45;2.42;;;;;;;-145.79;46.57;76830.44;5273106;28;20515;-67
2023/08/10 14:38:42;;;;;;;4.45;2.10;;;;;;;-145.79;46.82;76794.41;5266971;28;20056;-68
2023/08/10 14:41:13;;;;;;;4.95;2.33;;;;;;;-145.79;45.83;76788.06;5268200;28;20029;-68
2023/08/10 14:43:44;;;;;;;2.78;2.30;;;;;;;-145.79;45.66;76773.22;5274373;28;20028;-67
2023/08/10 14:46:16;;;;;;;2.38;1.92;;;;;;;-145.79;45.72;76760.50;5272805;28;20028;-67
2023/08/10 14:48:48;;;;;;;4.93;1.85;;;;;;;-145.79;45.34;76749.91;5266887;28;20033;-67
2023/08/10 14:51:19;;;;;;;2.03;1.70;;;;;;;-145.79;45.33;76745.69;5271362;28;20032;-67
2023/08/10 14:53:51;;;;;;;2.42;1.98;;;;;;;-145.79;44.84;76764.75;5270046;28;20021;-67
2023/08/10 14:56:23;;;;;;;5.10;2.20;;;;;;;-145.79;45.21;76749.91;5270413;28;20029;-67
2023/08/10 14:58:54;;;;;;;3.92;2.10;;;;;;;-145.79;45.55;76735.06;5273522;28;20028;-67
2023/08/10 15:01:26;;;;;;;4.32;1.80;;;;;;;-145.79;45.91;76737.19;5274211;28;20111;-67
2023/08/10 15:03:58;;;;;;;9.63;8.68;;;;;;;-145.79;46.13;76711.75;5270204;28;20017;-68
2023/08/10 15:06:29;;;;;;;3.72;2.63;;;;;;;-145.79;45.80;76709.66;5251526;28;20022;-67
2023/08/10 15:09:01;;;;;;;3.13;1.80;;;;;;;-145.79;45.67;76718.13;5273926;28;20468;-68
2023/08/10 15:11:34;;;;;;;2.80;1.77;;;;;;;-145.79;45.89;76720.25;5274165;28;20108;-68
2023/08/10 15:14:05;;;;;;;2.53;2.13;;;;;;;-145.79;46.25;76699.06;5268861;28;20032;-72
2023/08/10 15:16:36;;;;;;;2.75;2.25;;;;;;;-145.79;46.66;76694.81;5269934;28;20032;-71
2023/08/10 15:19:08;;;;;;;2.35;1.90;;;;;;;-145.79;45.78;76716.00;5272515;28;20439;-71
2023/08/10 15:21:39;;;;;;;2.72;2.38;;;;;;;-145.79;45.64;76686.34;5273784;28;20395;-72
2023/08/10 15:24:11;;;;;;;3.92;3.28;;;;;;;-145.79;45.95;76673.63;5266911;28;20100;-70
2023/08/10 15:26:42;;;;;;;4.03;2.28;;;;;;;-145.79;45.75;76671.50;5273359;28;20024;-72
2023/08/10 15:29:13;;;;;;;3.13;2.10;;;;;;;-145.79;45.80;76688.44;5270203;28;20053;-72
2023/08/10 15:31:45;;;;;;;2.42;2.20;;;;;;;-145.79;46.32;76684.22;5270034;28;20024;-72
2023/08/10 15:34:16;;;;;;;4.20;2.15;;;;;;;-145.79;46.88;76673.63;5271460;28;20021;-72
2023/08/10 15:36:47;;;;;;;3.03;2.30;;;;;;;-145.79;47.17;76696.94;5273841;28;20017;-72
2023/08/10 15:39:19;;;;;;;4.40;2.40;;;;;;;-145.79;47.74;76663.03;5249438;28;20105;-72
2023/08/10 15:41:51;;;;;;;5.82;3.50;;;;;;;-145.79;47.28;76650.31;5260934;28;20042;-72
2023/08/10 15:44:22;;;;;;;6.10;3.60;;;;;;;-145.79;46.93;76641.84;5269567;28;20035;-72
2023/08/10 15:46:53;;;;;;;7.10;5.13;;;;;;;-145.79;47.26;76665.16;5273740;28;20471;-72
2023/08/10 15:49:25;;;;;;;3.78;2.95;;;;;;;-145.79;46.83;76667.25;5259159;28;20029;-72
2023/08/10 15:51:56;;;;;;;4.40;2.53;;;;;;;-145.79;46.53;76671.50;5270911;28;20028;-72
2023/08/10 15:54:28;;;;;;;4.30;2.50;;;;;;;-145.79;47.25;76686.34;5275108;28;20025;-71
2023/08/10 15:57:01;;;;;;;2.20;2.00;;;;;;;-145.79;47.97;76690.56;5268505;28;20032;-71
2023/08/10 15:59:33;;;;;;;5.78;2.97;;;;;;;-145.79;47.90;76677.84;5263432;28;20445;-72
2023/08/10 16:02:06;;;;;;;2.97;2.72;;;;;;;-145.79;47.48;76688.44;5276231;28;20071;-73
2023/08/10 16:04:38;;;;;;;4.53;2.53;;;;;;;-145.79;47.97;76690.56;5275724;28;20108;-68
2023/08/10 16:07:09;;;;;;;3.90;2.47;;;;;;;-145.79;47.89;76705.41;5273291;28;20029;-68
2023/08/10 16:09:41;;;;;;;5.85;2.50;;;;;;;-145.79;48.12;76694.81;5274086;28;20021;-67
2023/08/10 16:12:12;;;;;;;6.00;2.58;;;;;;;-145.79;47.03;76671.50;5262922;28;20026;-68
2023/08/10 16:14:43;;;;;;;2.40;2.20;;;;;;;-145.79;48.21;76686.34;5258715;28;20472;-71
2023/08/10 16:17:14;;;;;;;5.07;3.45;;;;;;;-145.79;47.50;76679.97;5261930;28;20457;-70
2023/08/10 16:19:46;;;;;;;3.13;2.70;;;;;;;-145.79;47.05;76660.91;5270783;28;20028;-71
2023/08/10 16:22:17;;;;;;;4.88;1.92;;;;;;;-145.79;46.86;76656.66;5272533;28;20087;-70
2023/08/10 16:24:48;;;;;;;2.85;2.22;;;;;;;-145.79;47.00;76688.44;5276233;28;20020;-70
2023/08/10 16:27:20;;;;;;;3.85;1.90;;;;;;;-145.79;46.86;76656.66;5258762;28;20029;-69
2023/08/10 16:29:51;;;;;;;2.08;1.88;;;;;;;-145.79;47.52;76656.66;5266750;28;20456;-70
2023/08/10 16:32:22;;;;;;;3.85;2.22;;;;;;;-145.79;47.08;76671.50;5273683;28;20021;-71
2023/08/10 16:34:54;;;;;;;4.57;2.60;;;;;;;-145.79;47.14;76660.91;5273171;28;20037;-70
2023/08/10 16:37:25;;;;;;;3.92;3.50;;;;;;;-145.79;47.15;76671.50;5275455;28;20044;-70
2023/08/10 16:39:56;;;;;;;4.88;2.30;;;;;;;-145.79;47.49;76673.63;5269625;28;20025;-70
2023/08/10 16:42:28;;;;;;;3.72;2.10;;;;;;;-145.79;46.80;76641.84;5275867;28;20111;-70
2023/08/10 16:44:59;;;;;;;2.97;2.30;;;;;;;-145.79;47.27;76656.66;5270780;28;20472;-70
2023/08/10 16:47:31;;;;;;;4.85;2.15;;;;;;;-145.79;47.28;76633.34;5269179;28;20029;-70
2023/08/10 16:50:03;;;;;;;3.08;2.30;;;;;;;-145.79;47.50;76660.91;5255402;28;20401;-70
2023/08/10 16:52:35;;;;;;;5.30;2.10;;;;;;;-145.79;46.97;76667.25;5266496;28;20456;-70
2023/08/10 16:55:07;;;;;;;3.85;3.55;;;;;;;-145.79;47.18;76654.53;5269019;28;20025;-70
